createdAt,value
2018-03-03T00:01:03.260Z,99536.13
2018-03-03T00:02:06.753Z,99534.17
2018-03-03T00:03:10.084Z,99531.70
2018-03-03T00:04:13.563Z,99533.21
2018-03-03T00:05:16.870Z,99531.77
2018-03-03T00:06:20.240Z,99534.57
2018-03-03T00:07:23.638Z,99532.62
2018-03-03T00:08:26.968Z,99527.23
2018-03-03T00:09:30.312Z,99525.31
2018-03-03T00:10:33.665Z,99524.70
2018-03-03T00:11:37.125Z,99525.90
2018-03-03T00:12:40.634Z,99530.16
2018-03-03T00:13:43.958Z,99530.51
2018-03-03T00:14:47.309Z,99528.75
2018-03-03T00:15:50.643Z,99523.03
2018-03-03T00:16:54.050Z,99522.15
2018-03-03T00:17:57.441Z,99518.66
2018-03-03T00:19:00.798Z,99514.32
2018-03-03T00:20:04.108Z,99512.52
2018-03-03T00:21:07.432Z,99512.02
2018-03-03T00:22:10.918Z,99505.42
2018-03-03T00:23:14.234Z,99509.30
2018-03-03T00:24:17.652Z,99507.08
2018-03-03T00:25:21.076Z,99505.66
2018-03-03T00:26:24.417Z,99505.16
2018-03-03T00:27:27.849Z,99507.20
2018-03-03T00:28:31.168Z,99501.98
2018-03-03T00:29:34.553Z,99505.39
2018-03-03T00:30:37.982Z,99505.32
2018-03-03T00:31:41.323Z,99500.56
2018-03-03T00:32:44.657Z,99503.52
2018-03-03T00:33:48.015Z,99509.97
2018-03-03T00:34:51.338Z,99504.28
2018-03-03T00:35:54.641Z,99504.28
2018-03-03T00:36:58.042Z,99502.52
2018-03-03T00:38:01.409Z,99496.49
2018-03-03T00:39:04.802Z,99500.91
2018-03-03T00:40:08.156Z,99496.57
2018-03-03T00:41:11.533Z,99498.69
2018-03-03T00:42:14.844Z,99499.95
2018-03-03T00:43:18.216Z,99495.57
2018-03-03T00:44:21.578Z,99497.76
2018-03-03T00:45:24.969Z,99494.16
2018-03-03T00:46:28.288Z,99495.88
2018-03-03T00:47:31.638Z,99497.04
2018-03-03T00:48:35.030Z,99495.27
2018-03-03T00:49:38.411Z,99494.81
2018-03-03T00:50:42.618Z,99493.05
2018-03-03T00:51:45.942Z,99500.84
2018-03-03T00:52:49.302Z,99498.58
2018-03-03T00:53:52.699Z,99497.19
2018-03-03T00:54:56.010Z,99501.07
2018-03-03T00:55:59.609Z,99500.95
2018-03-03T00:57:02.919Z,99496.16
2018-03-03T00:58:06.321Z,99501.72
2018-03-03T00:59:09.711Z,99496.50
2018-03-03T01:00:13.102Z,99495.55
2018-03-03T01:01:16.451Z,99497.20
2018-03-03T01:02:19.762Z,99491.94
2018-03-03T01:03:23.077Z,99498.34
2018-03-03T01:04:26.427Z,99488.75
2018-03-03T01:05:29.752Z,99487.83
2018-03-03T01:06:33.080Z,99486.52
2018-03-03T01:07:36.411Z,99486.88
2018-03-03T01:08:39.740Z,99494.24
2018-03-03T01:09:43.088Z,99488.98
2018-03-03T01:10:46.443Z,99488.94
2018-03-03T01:11:49.832Z,99489.78
2018-03-03T01:12:53.166Z,99489.78
2018-03-03T01:13:56.487Z,99485.38
2018-03-03T01:14:59.901Z,99486.68
2018-03-03T01:16:03.222Z,99485.87
2018-03-03T01:17:06.687Z,99486.17
2018-03-03T01:18:10.008Z,99491.78
2018-03-03T01:19:13.305Z,99488.70
2018-03-03T01:20:16.742Z,99484.72
2018-03-03T01:21:20.065Z,99482.18
2018-03-03T01:22:23.407Z,99485.18
2018-03-03T01:23:26.756Z,99481.27
2018-03-03T01:24:30.108Z,99475.66
2018-03-03T01:25:33.448Z,99481.38
2018-03-03T01:26:36.855Z,99477.96
2018-03-03T01:27:40.216Z,99480.15
2018-03-03T01:28:43.657Z,99471.44
2018-03-03T01:29:46.997Z,99470.97
2018-03-03T01:30:50.565Z,99466.55
2018-03-03T01:31:53.913Z,99471.73
2018-03-03T01:32:57.265Z,99475.66
2018-03-03T01:34:00.712Z,99475.12
2018-03-03T01:35:04.004Z,99474.66
2018-03-03T01:36:07.378Z,99470.73
2018-03-03T01:37:10.713Z,99469.86
2018-03-03T01:38:14.053Z,99471.55
2018-03-03T01:39:17.387Z,99467.66
2018-03-03T01:40:20.719Z,99472.05
2018-03-03T01:41:24.144Z,99466.82
2018-03-03T01:42:27.463Z,99469.86
2018-03-03T01:43:30.788Z,99465.55
2018-03-03T01:44:34.189Z,99466.52
2018-03-03T01:45:37.524Z,99467.02
2018-03-03T01:46:40.882Z,99465.25
2018-03-03T01:47:44.277Z,99460.48
2018-03-03T01:48:47.613Z,99464.44
2018-03-03T01:49:50.980Z,99458.91
2018-03-03T01:50:54.439Z,99459.80
2018-03-03T01:51:57.841Z,99458.53
2018-03-03T01:53:01.341Z,99453.73
2018-03-03T01:54:04.712Z,99458.49
2018-03-03T01:55:08.049Z,99461.06
2018-03-03T01:56:11.434Z,99458.84
2018-03-03T01:57:14.768Z,99457.08
2018-03-03T01:58:18.092Z,99455.73
2018-03-03T01:59:21.431Z,99454.88
2018-03-03T02:00:24.769Z,99457.91
2018-03-03T02:01:28.224Z,99458.76
2018-03-03T02:02:31.561Z,99454.92
2018-03-03T02:03:34.963Z,99453.69
2018-03-03T02:04:38.305Z,99454.16
2018-03-03T02:05:41.628Z,99454.16
2018-03-03T02:06:45.000Z,99458.53
2018-03-03T02:07:48.369Z,99448.12
2018-03-03T02:08:51.787Z,99452.93
2018-03-03T02:09:55.112Z,99454.31
2018-03-03T02:10:58.441Z,99447.78
2018-03-03T02:12:02.293Z,99450.43
2018-03-03T02:13:05.693Z,99450.47
2018-03-03T02:14:09.068Z,99449.20
2018-03-03T02:15:12.416Z,99440.95
2018-03-03T02:16:15.852Z,99443.14
2018-03-03T02:17:19.200Z,99438.88
2018-03-03T02:18:22.608Z,99441.48
2018-03-03T02:19:25.935Z,99439.34
2018-03-03T02:20:29.304Z,99448.90
2018-03-03T02:21:32.602Z,99438.95
2018-03-03T02:22:35.953Z,99444.64
2018-03-03T02:23:39.275Z,99441.68
2018-03-03T02:24:42.622Z,99442.60
2018-03-03T02:25:45.976Z,99441.38
2018-03-03T02:26:50.052Z,99443.95
2018-03-03T02:27:53.402Z,99444.37
2018-03-03T02:28:56.898Z,99439.15
2018-03-03T02:30:00.257Z,99435.66
2018-03-03T02:31:03.603Z,99433.47
2018-03-03T02:32:07.002Z,99432.13
2018-03-03T02:33:10.541Z,99431.16
2018-03-03T02:34:13.936Z,99431.59
2018-03-03T02:35:17.247Z,99432.08
2018-03-03T02:36:20.651Z,99424.64
2018-03-03T02:37:24.079Z,99423.75
2018-03-03T02:38:27.501Z,99424.98
2018-03-03T02:39:30.927Z,99421.80
2018-03-03T02:40:34.336Z,99423.48
2018-03-03T02:41:37.797Z,99419.09
2018-03-03T02:42:41.149Z,99417.33
2018-03-03T02:43:44.621Z,99418.17
2018-03-03T02:44:47.952Z,99420.71
2018-03-03T02:45:51.312Z,99424.20
2018-03-03T02:46:54.727Z,99423.28
2018-03-03T02:47:58.030Z,99424.55
2018-03-03T02:49:01.351Z,99422.91
2018-03-03T02:50:04.759Z,99420.83
2018-03-03T02:51:08.070Z,99422.55
2018-03-03T02:52:11.458Z,99421.67
2018-03-03T02:53:14.764Z,99422.91
2018-03-03T02:54:18.166Z,99418.06
2018-03-03T02:55:21.570Z,99416.33
2018-03-03T02:56:24.993Z,99415.91
2018-03-03T02:57:28.363Z,99414.65
2018-03-03T02:58:31.733Z,99416.91
2018-03-03T02:59:35.185Z,99410.42
2018-03-03T03:00:38.793Z,99399.75
2018-03-03T03:01:42.220Z,99396.41
2018-03-03T03:02:45.597Z,99399.15
2018-03-03T03:03:48.906Z,99396.23
2018-03-03T03:04:52.309Z,99393.35
2018-03-03T03:05:55.658Z,99392.59
2018-03-03T03:06:58.948Z,99392.24
2018-03-03T03:08:02.356Z,99394.13
2018-03-03T03:09:05.710Z,99390.75
2018-03-03T03:10:09.036Z,99394.70
2018-03-03T03:11:12.383Z,99393.82
2018-03-03T03:12:15.774Z,99387.76
2018-03-03T03:13:19.084Z,99383.53
2018-03-03T03:14:22.432Z,99389.25
2018-03-03T03:15:25.837Z,99387.64
2018-03-03T03:16:29.169Z,99379.89
2018-03-03T03:17:32.533Z,99384.65
2018-03-03T03:18:35.979Z,99378.59
2018-03-03T03:19:39.304Z,99378.59
2018-03-03T03:20:42.629Z,99376.86
2018-03-03T03:21:46.060Z,99375.48
2018-03-03T03:22:49.480Z,99372.38
2018-03-03T03:23:52.793Z,99368.06
2018-03-03T03:24:56.166Z,99367.16
2018-03-03T03:25:59.495Z,99367.16
2018-03-03T03:27:02.840Z,99370.72
2018-03-03T03:28:06.159Z,99369.14
2018-03-03T03:29:09.521Z,99368.80
2018-03-03T03:30:12.877Z,99370.53
2018-03-03T03:31:16.202Z,99364.89
2018-03-03T03:32:19.538Z,99361.44
2018-03-03T03:33:22.888Z,99365.31
2018-03-03T03:34:26.253Z,99364.05
2018-03-03T03:35:29.601Z,99364.47
2018-03-03T03:36:32.929Z,99361.02
2018-03-03T03:37:36.382Z,99361.40
2018-03-03T03:38:39.743Z,99366.53
2018-03-03T03:39:43.085Z,99365.08
2018-03-03T03:40:46.468Z,99363.66
2018-03-03T03:41:49.836Z,99362.78
2018-03-03T03:42:53.412Z,99367.95
2018-03-03T03:43:56.737Z,99361.85
2018-03-03T03:45:00.159Z,99364.00
2018-03-03T03:46:03.537Z,99369.64
2018-03-03T03:47:06.833Z,99366.61
2018-03-03T03:48:10.257Z,99366.19
2018-03-03T03:49:13.609Z,99369.64
2018-03-03T03:50:16.947Z,99367.91
2018-03-03T03:51:20.307Z,99362.27
2018-03-03T03:52:24.011Z,99363.16
2018-03-03T03:53:27.459Z,99359.24
2018-03-03T03:54:30.865Z,99362.70
2018-03-03T03:55:34.262Z,99367.38
2018-03-03T03:56:37.837Z,99365.61
2018-03-03T03:57:41.269Z,99368.61
2018-03-03T03:58:44.652Z,99367.26
2018-03-03T03:59:47.976Z,99365.00
2018-03-03T04:00:51.365Z,99362.34
2018-03-03T04:01:54.724Z,99365.49
2018-03-03T04:02:58.058Z,99362.88
2018-03-03T04:04:01.448Z,99358.13
2018-03-03T04:05:04.797Z,99356.70
2018-03-03T04:06:08.175Z,99346.69
2018-03-03T04:07:11.493Z,99352.24
2018-03-03T04:08:14.904Z,99347.87
2018-03-03T04:09:18.340Z,99346.03
2018-03-03T04:10:21.822Z,99353.39
2018-03-03T04:11:25.168Z,99347.80
2018-03-03T04:12:28.495Z,99346.56
2018-03-03T04:13:31.904Z,99347.38
2018-03-03T04:14:35.419Z,99351.29
2018-03-03T04:15:38.865Z,99344.77
2018-03-03T04:16:42.206Z,99348.67
2018-03-03T04:17:45.565Z,99342.53
2018-03-03T04:18:48.886Z,99341.19
2018-03-03T04:19:52.336Z,99337.65
2018-03-03T04:20:55.667Z,99343.27
2018-03-03T04:21:58.972Z,99338.84
2018-03-03T04:23:02.398Z,99343.17
2018-03-03T04:24:05.884Z,99338.34
2018-03-03T04:25:09.389Z,99336.57
2018-03-03T04:26:12.715Z,99337.30
2018-03-03T04:27:16.037Z,99340.28
2018-03-03T04:28:19.451Z,99331.92
2018-03-03T04:29:22.950Z,99336.17
2018-03-03T04:30:26.324Z,99335.64
2018-03-03T04:31:29.623Z,99344.31
2018-03-03T04:32:32.998Z,99336.52
2018-03-03T04:33:36.421Z,99329.99
2018-03-03T04:34:39.722Z,99338.32
2018-03-03T04:35:43.055Z,99330.84
2018-03-03T04:36:46.415Z,99331.37
2018-03-03T04:37:49.807Z,99329.65
2018-03-03T04:38:53.149Z,99330.99
2018-03-03T04:39:56.596Z,99328.80
2018-03-03T04:40:59.953Z,99329.65
2018-03-03T04:42:03.268Z,99332.61
2018-03-03T04:43:06.615Z,99331.25
2018-03-03T04:44:09.943Z,99325.61
2018-03-03T04:45:13.285Z,99324.73
2018-03-03T04:46:16.756Z,99323.80
2018-03-03T04:47:20.132Z,99318.13
2018-03-03T04:48:23.513Z,99326.30
2018-03-03T04:49:26.812Z,99320.66
2018-03-03T04:50:30.232Z,99324.11
2018-03-03T04:51:33.622Z,99322.38
2018-03-03T04:52:37.001Z,99320.27
2018-03-03T04:53:40.306Z,99321.16
2018-03-03T04:54:43.672Z,99324.31
2018-03-03T04:55:47.057Z,99322.23
2018-03-03T04:56:50.484Z,99318.31
2018-03-03T04:57:53.906Z,99320.86
2018-03-03T05:00:49.086Z,99319.05
2018-03-03T05:01:57.960Z,99317.36
2018-03-03T05:03:01.823Z,99325.19
2018-03-03T05:04:18.146Z,99317.28
2018-03-03T05:05:41.154Z,99320.35
2018-03-03T05:07:03.446Z,99315.75
2018-03-03T05:08:07.696Z,99315.37
2018-03-03T05:09:11.071Z,99318.74
2018-03-03T05:10:14.863Z,99314.25
2018-03-03T05:11:18.282Z,99315.39
2018-03-03T05:12:27.278Z,99310.09
2018-03-03T05:13:35.236Z,99319.15
2018-03-03T05:14:45.016Z,99315.23
2018-03-03T05:17:41.960Z,99311.27
2018-03-03T05:20:20.681Z,99311.03
2018-03-03T05:21:25.392Z,99316.22
2018-03-03T05:22:35.366Z,99306.15
2018-03-03T05:23:44.693Z,99317.05
2018-03-03T05:24:53.745Z,99311.37
2018-03-03T05:27:41.608Z,99307.16
2018-03-03T05:28:50.597Z,99307.11
2018-03-03T05:29:59.919Z,99309.30
2018-03-03T05:32:45.733Z,99305.85
2018-03-03T05:33:54.749Z,99313.22
2018-03-03T05:35:03.765Z,99309.73
2018-03-03T05:36:12.748Z,99309.64
2018-03-03T05:38:56.556Z,99311.76
2018-03-03T05:40:05.498Z,99306.70
2018-03-03T05:41:14.415Z,99303.23
2018-03-03T05:42:23.232Z,99302.82
2018-03-03T05:43:32.254Z,99305.85
2018-03-03T05:44:36.353Z,99307.23
2018-03-03T05:45:45.154Z,99302.47
2018-03-03T05:46:54.170Z,99304.24
2018-03-03T05:48:01.483Z,99302.98
2018-03-03T05:49:13.418Z,99301.67
2018-03-03T05:50:17.508Z,99294.84
2018-03-03T05:51:27.388Z,99299.53
2018-03-03T05:52:36.236Z,99305.28
2018-03-03T05:55:20.140Z,99302.88
2018-03-03T05:56:29.928Z,99300.69
2018-03-03T05:59:29.394Z,99296.23
2018-03-03T06:02:07.021Z,99299.64
2018-03-03T06:03:15.941Z,99295.73
2018-03-03T06:04:24.905Z,99298.76
2018-03-03T06:05:34.799Z,99294.77
2018-03-03T06:06:49.983Z,99296.56
2018-03-03T06:07:58.922Z,99306.59
2018-03-03T06:09:04.157Z,99303.56
2018-03-03T06:11:47.712Z,99306.44
2018-03-03T06:12:51.236Z,99303.86
2018-03-03T06:13:54.567Z,99309.88
2018-03-03T06:14:57.909Z,99302.94
2018-03-03T06:16:01.297Z,99308.58
2018-03-03T06:17:04.690Z,99308.58
2018-03-03T06:18:08.077Z,99305.55
2018-03-03T06:19:11.446Z,99305.97
2018-03-03T06:20:14.780Z,99313.42
2018-03-03T06:21:18.207Z,99306.01
2018-03-03T06:22:21.510Z,99309.05
2018-03-03T06:23:24.898Z,99308.20
2018-03-03T06:24:28.208Z,99309.13
2018-03-03T06:25:31.603Z,99311.73
2018-03-03T06:26:34.903Z,99307.05
2018-03-03T06:27:38.334Z,99310.17
2018-03-03T06:28:41.677Z,99311.52
2018-03-03T06:29:45.036Z,99310.70
2018-03-03T06:30:48.353Z,99312.48
2018-03-03T06:31:51.728Z,99309.91
2018-03-03T06:32:55.095Z,99315.22
2018-03-03T06:33:58.498Z,99311.25
2018-03-03T06:35:01.857Z,99315.63
2018-03-03T06:36:05.666Z,99314.28
2018-03-03T06:37:09.017Z,99314.20
2018-03-03T06:38:12.464Z,99309.41
2018-03-03T06:39:15.851Z,99311.12
2018-03-03T06:40:19.229Z,99321.50
2018-03-03T06:41:22.607Z,99320.61
2018-03-03T06:42:26.156Z,99316.73
2018-03-03T06:43:29.494Z,99324.19
2018-03-03T06:44:32.873Z,99325.16
2018-03-03T06:45:36.189Z,99326.38
2018-03-03T06:46:39.882Z,99329.41
2018-03-03T06:47:43.271Z,99327.14
2018-03-03T06:48:46.663Z,99324.03
2018-03-03T06:49:50.013Z,99327.91
2018-03-03T06:50:53.361Z,99324.88
2018-03-03T06:51:56.725Z,99323.19
2018-03-03T06:53:00.062Z,99321.92
2018-03-03T06:54:03.446Z,99325.95
2018-03-03T06:55:06.929Z,99328.56
2018-03-03T06:56:10.228Z,99320.77
2018-03-03T06:57:13.607Z,99320.86
2018-03-03T06:58:17.228Z,99328.22
2018-03-03T06:59:20.543Z,99321.23
2018-03-03T07:00:23.934Z,99324.65
2018-03-03T07:01:27.257Z,99330.22
2018-03-03T07:02:30.587Z,99329.33
2018-03-03T07:03:33.967Z,99331.52
2018-03-03T07:04:37.362Z,99329.29
2018-03-03T07:05:40.725Z,99332.28
2018-03-03T07:06:44.113Z,99328.36
2018-03-03T07:07:47.533Z,99332.70
2018-03-03T07:08:50.844Z,99325.68
2018-03-03T07:09:54.289Z,99330.35
2018-03-03T07:10:57.707Z,99325.17
2018-03-03T07:12:01.039Z,99329.31
2018-03-03T07:13:04.385Z,99326.12
2018-03-03T07:14:07.792Z,99330.37
2018-03-03T07:15:22.985Z,99326.00
2018-03-03T07:16:26.367Z,99329.53
2018-03-03T07:17:29.677Z,99332.10
2018-03-03T07:18:32.992Z,99339.82
2018-03-03T07:19:36.375Z,99336.70
2018-03-03T07:20:39.805Z,99335.66
2018-03-03T07:21:43.152Z,99339.03
2018-03-03T07:22:46.543Z,99333.64
2018-03-03T07:23:49.909Z,99339.25
2018-03-03T07:24:53.270Z,99333.14
2018-03-03T07:25:56.592Z,99340.98
2018-03-03T07:27:00.021Z,99336.52
2018-03-03T07:28:03.360Z,99330.87
2018-03-03T07:29:06.709Z,99334.33
2018-03-03T07:30:10.090Z,99334.24
2018-03-03T07:31:13.421Z,99335.12
2018-03-03T07:32:16.802Z,99328.59
2018-03-03T07:33:20.189Z,99333.36
2018-03-03T07:34:23.590Z,99329.78
2018-03-03T07:35:26.922Z,99338.37
2018-03-03T07:36:30.301Z,99326.51
2018-03-03T07:37:33.656Z,99325.95
2018-03-03T07:38:37.750Z,99326.34
2018-03-03T07:39:41.140Z,99330.18
2018-03-03T07:40:44.493Z,99339.23
2018-03-03T07:41:47.874Z,99334.40
2018-03-03T07:42:51.321Z,99328.79
2018-03-03T07:43:54.662Z,99328.41
2018-03-03T07:44:58.753Z,99328.83
2018-03-03T07:46:02.311Z,99330.56
2018-03-03T07:47:05.623Z,99331.33
2018-03-03T07:48:09.024Z,99336.42
2018-03-03T07:49:12.433Z,99339.92
2018-03-03T07:50:15.800Z,99339.45
2018-03-03T07:51:19.182Z,99333.01
2018-03-03T07:52:22.519Z,99333.81
2018-03-03T07:53:27.029Z,99328.63
2018-03-03T07:54:30.382Z,99325.22
2018-03-03T07:55:33.722Z,99323.02
2018-03-03T07:56:49.250Z,99325.17
2018-03-03T07:57:52.647Z,99326.09
2018-03-03T07:58:58.675Z,99325.59
2018-03-03T08:00:02.962Z,99332.50
2018-03-03T08:01:06.368Z,99325.55
2018-03-03T08:02:09.796Z,99327.16
2018-03-03T08:03:13.219Z,99330.15
2018-03-03T08:04:16.636Z,99327.42
2018-03-03T08:05:20.064Z,99331.25
2018-03-03T08:06:23.437Z,99332.94
2018-03-03T08:07:26.793Z,99329.36
2018-03-03T08:08:30.173Z,99331.84
2018-03-03T08:09:33.587Z,99328.73
2018-03-03T08:10:36.936Z,99323.80
2018-03-03T08:11:40.234Z,99324.14
2018-03-03T08:12:43.576Z,99323.59
2018-03-03T08:13:47.800Z,99326.97
2018-03-03T08:14:51.192Z,99330.38
2018-03-03T08:15:54.528Z,99326.38
2018-03-03T08:18:07.574Z,99325.75
2018-03-03T08:19:10.917Z,99322.55
2018-03-03T08:20:14.468Z,99324.58
2018-03-03T08:21:17.924Z,99331.49
2018-03-03T08:22:21.699Z,99323.91
2018-03-03T08:23:25.023Z,99326.90
2018-03-03T08:24:28.399Z,99325.97
2018-03-03T08:25:32.129Z,99325.84
2018-03-03T08:26:35.658Z,99330.98
2018-03-03T08:27:39.096Z,99333.48
2018-03-03T08:28:42.489Z,99331.63
2018-03-03T08:29:45.854Z,99327.66
2018-03-03T08:30:49.329Z,99330.16
2018-03-03T08:31:52.686Z,99332.59
2018-03-03T08:32:56.083Z,99334.66
2018-03-03T08:33:59.835Z,99327.23
2018-03-03T08:35:03.268Z,99335.00
2018-03-03T08:36:06.842Z,99327.53
2018-03-03T08:37:10.171Z,99326.61
2018-03-03T08:38:13.496Z,99332.55
2018-03-03T08:39:16.900Z,99331.16
2018-03-03T08:40:20.224Z,99335.00
2018-03-03T08:41:23.574Z,99332.34
2018-03-03T08:42:26.900Z,99330.53
2018-03-03T08:43:30.215Z,99330.48
2018-03-03T08:44:33.576Z,99326.48
2018-03-03T08:45:37.029Z,99332.05
2018-03-03T08:46:40.370Z,99321.05
2018-03-03T08:47:43.701Z,99330.16
2018-03-03T08:48:47.100Z,99332.72
2018-03-03T08:49:50.435Z,99331.83
2018-03-03T08:50:53.832Z,99327.02
2018-03-03T08:51:57.257Z,99326.86
2018-03-03T08:53:00.619Z,99323.73
2018-03-03T08:54:03.990Z,99335.38
2018-03-03T08:55:07.297Z,99322.77
2018-03-03T08:56:10.613Z,99332.30
2018-03-03T08:57:14.035Z,99325.71
2018-03-03T08:58:17.384Z,99325.25
2018-03-03T08:59:21.073Z,99322.51
2018-03-03T09:00:24.419Z,99321.16
2018-03-03T09:01:27.731Z,99327.23
2018-03-03T09:02:31.121Z,99321.53
2018-03-03T09:03:34.453Z,99327.06
2018-03-03T09:04:38.849Z,99323.98
2018-03-03T09:05:42.237Z,99328.33
2018-03-03T09:06:45.665Z,99322.20
2018-03-03T09:07:49.046Z,99323.14
2018-03-03T09:08:52.432Z,99328.79
2018-03-03T09:09:55.798Z,99323.52
2018-03-03T09:10:59.125Z,99331.23
2018-03-03T09:12:02.460Z,99332.92
2018-03-03T09:13:05.885Z,99325.88
2018-03-03T09:14:09.320Z,99328.36
2018-03-03T09:15:12.645Z,99333.97
2018-03-03T09:16:16.030Z,99330.05
2018-03-03T09:17:19.404Z,99327.39
2018-03-03T09:18:22.761Z,99331.66
2018-03-03T09:19:26.078Z,99337.73
2018-03-03T09:20:29.509Z,99338.52
2018-03-03T09:21:32.837Z,99333.24
2018-03-03T09:22:36.309Z,99337.51
2018-03-03T09:23:39.811Z,99340.88
2018-03-03T09:24:43.116Z,99335.89
2018-03-03T09:25:46.550Z,99343.66
2018-03-03T09:26:49.861Z,99347.41
2018-03-03T09:27:53.232Z,99343.73
2018-03-03T09:28:56.586Z,99345.30
2018-03-03T09:29:59.919Z,99343.77
2018-03-03T09:31:03.228Z,99349.29
2018-03-03T09:32:06.642Z,99343.51
2018-03-03T09:33:10.041Z,99348.28
2018-03-03T09:34:13.534Z,99343.84
2018-03-03T09:35:16.907Z,99346.28
2018-03-03T09:36:20.218Z,99353.55
2018-03-03T09:37:23.532Z,99348.64
2018-03-03T09:38:26.860Z,99348.05
2018-03-03T09:39:30.231Z,99345.80
2018-03-03T09:40:33.643Z,99341.23
2018-03-03T09:41:37.077Z,99345.54
2018-03-03T09:42:40.512Z,99347.98
2018-03-03T09:43:44.028Z,99349.77
2018-03-03T09:44:47.497Z,99354.06
2018-03-03T09:45:50.869Z,99348.36
2018-03-03T09:46:54.221Z,99350.39
2018-03-03T09:47:57.549Z,99348.19
2018-03-03T09:49:00.869Z,99356.71
2018-03-03T09:50:04.272Z,99354.67
2018-03-03T09:51:07.592Z,99356.59
2018-03-03T09:52:10.926Z,99355.36
2018-03-03T09:53:14.485Z,99355.98
2018-03-03T09:54:17.816Z,99355.67
2018-03-03T09:55:21.301Z,99349.19
2018-03-03T09:56:24.852Z,99354.16
2018-03-03T09:57:28.200Z,99352.16
2018-03-03T09:58:31.591Z,99356.75
2018-03-03T09:59:35.288Z,99356.44
2018-03-03T10:00:38.714Z,99355.74
2018-03-03T10:01:43.361Z,99349.81
2018-03-03T10:02:45.527Z,99352.72
2018-03-03T10:03:48.959Z,99356.56
2018-03-03T10:04:52.294Z,99353.34
2018-03-03T10:05:55.753Z,99358.06
2018-03-03T10:06:59.049Z,99356.58
2018-03-03T10:08:02.454Z,99361.64
2018-03-03T10:09:05.886Z,99371.09
2018-03-03T10:10:09.210Z,99366.04
2018-03-03T10:11:12.575Z,99374.15
2018-03-03T10:12:15.953Z,99363.91
2018-03-03T10:13:19.280Z,99366.30
2018-03-03T10:14:22.629Z,99363.83
2018-03-03T10:15:26.019Z,99364.86
2018-03-03T10:16:29.387Z,99362.89
2018-03-03T10:17:32.733Z,99362.66
2018-03-03T10:18:36.099Z,99362.34
2018-03-03T10:19:39.484Z,99357.62
2018-03-03T10:20:42.876Z,99351.58
2018-03-03T10:21:46.286Z,99358.56
2018-03-03T10:22:49.608Z,99360.44
2018-03-03T10:23:53.064Z,99361.52
2018-03-03T10:24:56.427Z,99357.77
2018-03-03T10:25:59.722Z,99355.75
2018-03-03T10:27:03.074Z,99353.31
2018-03-03T10:28:06.395Z,99359.09
2018-03-03T10:29:09.718Z,99361.05
2018-03-03T10:30:13.038Z,99359.88
2018-03-03T10:31:16.514Z,99356.55
2018-03-03T10:32:20.169Z,99356.68
2018-03-03T10:33:23.505Z,99355.55
2018-03-03T10:34:27.041Z,99358.41
2018-03-03T10:35:30.404Z,99356.81
2018-03-03T10:36:33.752Z,99355.73
2018-03-03T10:37:37.521Z,99348.17
2018-03-03T10:38:40.916Z,99347.94
2018-03-03T10:39:44.280Z,99348.59
2018-03-03T10:40:47.750Z,99345.12
2018-03-03T10:41:51.067Z,99339.41
2018-03-03T10:42:54.417Z,99340.25
2018-03-03T10:43:57.750Z,99337.19
2018-03-03T10:45:01.302Z,99346.50
2018-03-03T10:46:04.801Z,99340.45
2018-03-03T10:47:08.130Z,99334.90
2018-03-03T10:48:11.670Z,99343.80
2018-03-03T10:49:15.057Z,99344.92
2018-03-03T10:50:18.541Z,99347.25
2018-03-03T10:51:22.030Z,99344.32
2018-03-03T10:52:25.503Z,99349.16
2018-03-03T10:53:28.858Z,99348.03
2018-03-03T10:54:32.196Z,99353.77
2018-03-03T10:55:35.520Z,99353.70
2018-03-03T10:56:39.075Z,99349.58
2018-03-03T10:57:42.442Z,99347.59
2018-03-03T10:58:45.859Z,99346.88
2018-03-03T10:59:49.270Z,99350.05
2018-03-03T11:00:52.637Z,99352.48
2018-03-03T11:01:56.042Z,99347.40
2018-03-03T11:02:59.412Z,99348.47
2018-03-03T11:04:02.902Z,99345.53
2018-03-03T11:05:06.248Z,99351.02
2018-03-03T11:06:09.565Z,99348.28
2018-03-03T11:07:12.880Z,99347.75
2018-03-03T11:08:16.307Z,99344.45
2018-03-03T11:09:19.684Z,99349.57
2018-03-03T11:10:23.098Z,99350.72
2018-03-03T11:11:26.400Z,99358.47
2018-03-03T11:12:29.743Z,99350.30
2018-03-03T11:14:35.532Z,99357.34
2018-03-03T11:15:38.955Z,99355.14
2018-03-03T11:16:42.286Z,99351.20
2018-03-03T11:17:45.650Z,99355.56
2018-03-03T11:18:49.047Z,99354.72
2018-03-03T11:19:52.604Z,99351.48
2018-03-03T11:20:56.003Z,99354.47
2018-03-03T11:21:59.411Z,99353.10
2018-03-03T11:23:02.738Z,99350.53
2018-03-03T11:24:06.161Z,99353.83
2018-03-03T11:25:09.690Z,99353.70
2018-03-03T11:26:13.040Z,99357.00
2018-03-03T11:27:16.464Z,99357.98
2018-03-03T11:28:19.804Z,99356.73
2018-03-03T11:29:23.133Z,99349.73
2018-03-03T11:30:26.579Z,99351.54
2018-03-03T11:31:29.942Z,99352.77
2018-03-03T11:32:33.366Z,99352.97
2018-03-03T11:33:36.883Z,99356.63
2018-03-03T11:34:40.306Z,99355.94
2018-03-03T11:35:43.773Z,99348.58
2018-03-03T11:36:47.135Z,99347.63
2018-03-03T11:37:50.537Z,99347.91
2018-03-03T11:38:54.005Z,99352.64
2018-03-03T11:39:57.341Z,99354.38
2018-03-03T11:41:00.758Z,99345.23
2018-03-03T11:42:04.068Z,99345.70
2018-03-03T11:43:07.417Z,99348.39
2018-03-03T11:44:10.753Z,99348.75
2018-03-03T11:45:14.060Z,99350.44
2018-03-03T11:46:17.517Z,99350.44
2018-03-03T11:47:20.861Z,99353.95
2018-03-03T11:48:24.189Z,99354.95
2018-03-03T11:49:27.618Z,99349.42
2018-03-03T11:50:31.205Z,99353.55
2018-03-03T11:51:36.489Z,99348.82
2018-03-03T11:52:39.946Z,99352.81
2018-03-03T11:53:43.636Z,99352.86
2018-03-03T11:54:47.001Z,99353.84
2018-03-03T11:55:50.365Z,99350.06
2018-03-03T11:56:53.767Z,99354.66
2018-03-03T11:57:57.156Z,99351.20
2018-03-03T11:59:00.544Z,99362.07
2018-03-03T12:00:04.479Z,99355.92
2018-03-03T12:01:07.823Z,99356.34
2018-03-03T12:02:11.212Z,99358.97
2018-03-03T12:03:14.576Z,99349.31
2018-03-03T12:04:18.083Z,99350.56
2018-03-03T12:05:21.795Z,99350.91
2018-03-03T12:06:25.163Z,99355.69
2018-03-03T12:07:28.510Z,99355.63
2018-03-03T12:08:31.914Z,99354.27
2018-03-03T12:09:35.383Z,99349.02
2018-03-03T12:10:38.782Z,99350.33
2018-03-03T12:11:42.115Z,99347.38
2018-03-03T12:12:45.504Z,99352.35
2018-03-03T12:13:48.932Z,99353.35
2018-03-03T12:14:52.268Z,99357.30
2018-03-03T12:15:55.616Z,99346.84
2018-03-03T12:16:59.001Z,99350.44
2018-03-03T12:18:02.408Z,99350.91
2018-03-03T12:19:05.732Z,99343.98
2018-03-03T12:20:09.076Z,99343.56
2018-03-03T12:21:12.447Z,99347.88
2018-03-03T12:22:15.869Z,99352.28
2018-03-03T12:23:19.248Z,99346.55
2018-03-03T12:24:22.738Z,99353.96
2018-03-03T12:25:26.103Z,99349.55
2018-03-03T12:26:29.492Z,99351.62
2018-03-03T12:27:32.853Z,99354.66
2018-03-03T12:28:36.228Z,99355.09
2018-03-03T12:29:39.565Z,99346.78
2018-03-03T12:30:42.921Z,99342.98
2018-03-03T12:31:46.283Z,99353.55
2018-03-03T12:32:49.704Z,99343.14
2018-03-03T12:33:53.692Z,99347.50
2018-03-03T12:34:57.117Z,99349.13
2018-03-03T12:36:00.477Z,99349.41
2018-03-03T12:37:03.896Z,99355.27
2018-03-03T12:38:07.208Z,99346.30
2018-03-03T12:39:10.816Z,99351.39
2018-03-03T12:40:14.225Z,99350.84
2018-03-03T12:41:17.702Z,99345.84
2018-03-03T12:42:21.003Z,99348.70
2018-03-03T12:43:24.337Z,99352.81
2018-03-03T12:44:27.877Z,99355.62
2018-03-03T12:45:31.281Z,99348.02
2018-03-03T12:46:34.589Z,99344.55
2018-03-03T12:47:37.945Z,99346.23
2018-03-03T12:48:41.347Z,99358.47